Time;durP1;ratioP1;P1;durP2;ratioP2;P2;SDS_P1;SDS_P2;PMS_P1;PMS_P2;Temp;Humidity;BMP_temperature;BMP_pressure;BME280_temperature;BME280_humidity;BME280_pressure;Samples;Min_cycle;Max_cycle;Signal;HPM_P1;HPM_P2
2021/03/05 00:04:11;;;;;;;8.40;6.13;;;;;;;;;;5036636;28;20048;-55
2021/03/05 00:06:48;;;;;;;8.30;6.32;;;;;;;;;;5036616;28;20036;-54
2021/03/05 00:09:14;;;;;;;7.05;6.22;;;;;;;;;;5003809;28;20033;-57
2021/03/05 00:11:40;;;;;;;10.05;6.93;;;;;;;;;;5036670;28;20029;-56
2021/03/05 00:14:32;;;;;;;8.43;6.82;;;;;;;;;;5037625;28;20113;-56
2021/03/05 00:17:01;;;;;;;10.15;8.43;;;;;;;;;;5036446;28;20034;-56
2021/03/05 00:19:34;;;;;;;11.32;10.13;;;;;;;;;;5036779;28;20367;-54
2021/03/05 00:22:20;;;;;;;13.32;9.98;;;;;;;;;;5036926;28;20030;-55
2021/03/05 00:25:12;;;;;;;11.85;9.98;;;;;;;;;;5019113;28;20498;-56
2021/03/05 00:28:08;;;;;;;13.13;10.20;;;;;;;;;;5018410;28;20037;-56
2021/03/05 00:30:37;;;;;;;13.68;11.52;;;;;;;;;;5015256;28;20072;-56
2021/03/05 00:33:07;;;;;;;14.90;11.60;;;;;;;;;;5036233;28;20048;-56
2021/03/05 00:35:53;;;;;;;16.92;13.30;;;;;;;;;;5036452;28;20025;-55
2021/03/05 00:38:26;;;;;;;16.60;14.10;;;;;;;;;;5036356;28;20025;-56
2021/03/05 00:41:09;;;;;;;18.65;14.27;;;;;;;;;;5036707;28;20026;-55
2021/03/05 00:44:13;;;;;;;19.40;15.57;;;;;;;;;;5036928;28;20120;-56
2021/03/05 00:46:51;;;;;;;19.30;14.07;;;;;;;;;;5036720;28;20033;-56
2021/03/05 00:52:29;;;;;;;20.17;17.27;;;;;;;;;;5025370;28;20033;-56
2021/03/05 00:55:18;;;;;;;18.98;15.65;;;;;;;;;;5035992;28;20124;-56
2021/03/05 00:57:55;;;;;;;20.92;16.02;;;;;;;;;;5034926;28;20037;-54
2021/03/05 01:06:08;;;;;;;21.90;17.70;;;;;;;;;;4995228;28;20033;-56
2021/03/05 01:08:40;;;;;;;26.02;16.45;;;;;;;;;;5019154;28;20028;-55
2021/03/05 01:11:13;;;;;;;20.10;16.20;;;;;;;;;;5017888;28;20399;-56
2021/03/05 01:13:50;;;;;;;19.48;14.77;;;;;;;;;;5035652;28;20057;-56
2021/03/05 01:22:58;;;;;;;23.77;18.33;;;;;;;;;;5007039;28;20041;-53
2021/03/05 01:25:28;;;;;;;26.50;19.30;;;;;;;;;;5035942;28;20025;-55
2021/03/05 01:28:01;;;;;;;23.88;17.67;;;;;;;;;;5035250;28;20075;-54
2021/03/05 01:33:54;;;;;;;29.73;18.43;;;;;;;;;;5035806;28;20056;-55
2021/03/05 01:36:27;;;;;;;29.30;20.03;;;;;;;;;;5028501;28;20059;-56
2021/03/05 01:39:23;;;;;;;30.60;21.13;;;;;;;;;;5035485;28;20029;-55
2021/03/05 01:42:16;;;;;;;25.90;18.90;;;;;;;;;;5035068;28;20033;-56
2021/03/05 01:44:48;;;;;;;26.40;19.03;;;;;;;;;;5017472;28;20029;-56
2021/03/05 01:47:32;;;;;;;29.10;20.63;;;;;;;;;;5035615;28;20504;-56
2021/03/05 01:50:08;;;;;;;28.63;20.13;;;;;;;;;;5034903;28;20034;-55
2021/03/05 01:53:04;;;;;;;34.33;19.13;;;;;;;;;;5035342;28;20080;-55
2021/03/05 01:55:56;;;;;;;24.97;18.67;;;;;;;;;;5035000;28;20048;-55
2021/03/05 01:58:46;;;;;;;27.17;18.23;;;;;;;;;;5031347;28;20088;-56
2021/03/05 02:01:25;;;;;;;22.17;17.13;;;;;;;;;;5020590;28;20041;-56
2021/03/05 02:06:56;;;;;;;24.03;15.80;;;;;;;;;;5024467;28;20021;-55
2021/03/05 02:09:28;;;;;;;23.23;16.07;;;;;;;;;;5035189;28;20022;-56
2021/03/05 02:12:03;;;;;;;29.30;18.57;;;;;;;;;;5035370;28;20029;-56
2021/03/05 02:20:30;;;;;;;37.90;23.80;;;;;;;;;;5034941;28;20049;-56
2021/03/05 02:23:15;;;;;;;32.93;21.13;;;;;;;;;;4973193;28;20492;-56
2021/03/05 02:25:59;;;;;;;30.53;18.43;;;;;;;;;;5034443;28;20100;-56
2021/03/05 02:28:51;;;;;;;27.63;21.73;;;;;;;;;;5034928;28;20026;-55
2021/03/05 02:35:10;;;;;;;32.07;22.13;;;;;;;;;;5021042;28;20029;-54
2021/03/05 02:37:40;;;;;;;31.43;21.93;;;;;;;;;;5016787;28;20531;-56
2021/03/05 02:43:31;;;;;;;29.17;19.17;;;;;;;;;;5034621;28;20037;-56
2021/03/05 02:46:26;;;;;;;28.47;18.67;;;;;;;;;;5034566;28;20030;-56
2021/03/05 02:49:12;;;;;;;28.23;18.20;;;;;;;;;;5033788;28;20045;-52
2021/03/05 02:52:10;;;;;;;33.60;20.83;;;;;;;;;;5014782;28;20487;-56
2021/03/05 02:54:45;;;;;;;24.47;17.77;;;;;;;;;;5033897;28;20036;-56
2021/03/05 02:57:21;;;;;;;25.30;19.97;;;;;;;;;;5034753;28;20057;-56
2021/03/05 03:00:07;;;;;;;35.57;21.03;;;;;;;;;;5034260;28;20056;-56
2021/03/05 03:02:37;;;;;;;29.80;18.27;;;;;;;;;;5033525;28;20537;-56
2021/03/05 03:05:24;;;;;;;;;;;;;;;;;;;;;
2021/03/05 03:11:03;;;;;;;22.07;16.60;;;;;;;;;;5023643;28;20529;-55
2021/03/05 03:13:35;;;;;;;30.23;21.08;;;;;;;;;;5035012;28;20028;-54
2021/03/05 03:16:10;;;;;;;31.83;19.97;;;;;;;;;;5035392;28;20474;-56
2021/03/05 03:18:57;;;;;;;33.77;20.33;;;;;;;;;;5034669;28;20105;-56
2021/03/05 03:21:30;;;;;;;26.47;18.73;;;;;;;;;;5034641;28;20037;-55
2021/03/05 03:24:25;;;;;;;27.10;18.30;;;;;;;;;;5031753;28;20091;-56
2021/03/05 03:27:40;;;;;;;;;;;;;;;;;;;;;
2021/03/05 03:30:29;;;;;;;21.93;15.97;;;;;;;;;;4955179;28;20150;-54
2021/03/05 03:33:10;;;;;;;29.73;18.93;;;;;;;;;;4953074;29;20129;-56
2021/03/05 03:35:54;;;;;;;28.67;17.95;;;;;;;;;;4957895;29;20529;-53
2021/03/05 03:38:30;;;;;;;23.67;17.27;;;;;;;;;;4942506;28;20037;-54
2021/03/05 03:40:59;;;;;;;19.40;15.83;;;;;;;;;;5038391;28;20028;-55
2021/03/05 03:43:53;;;;;;;24.00;17.93;;;;;;;;;;5010484;28;20037;-55
2021/03/05 03:50:06;;;;;;;27.23;17.63;;;;;;;;;;5034308;28;20103;-56
2021/03/05 03:56:24;;;;;;;23.20;17.33;;;;;;;;;;4979691;28;20037;-56
2021/03/05 03:59:15;;;;;;;24.80;16.60;;;;;;;;;;5038545;28;20033;-56
2021/03/05 04:02:11;;;;;;;29.30;19.10;;;;;;;;;;5019213;28;20034;-54
2021/03/05 04:04:44;;;;;;;31.07;17.83;;;;;;;;;;5036260;28;20041;-54
2021/03/05 04:07:27;;;;;;;27.80;18.40;;;;;;;;;;5017991;28;20037;-56
2021/03/05 04:10:40;;;;;;;22.97;16.57;;;;;;;;;;5020421;28;20451;-54
2021/03/05 04:16:17;;;;;;;19.00;14.17;;;;;;;;;;5026932;28;20033;-55
2021/03/05 04:19:00;;;;;;;21.43;14.07;;;;;;;;;;5037862;28;20033;-56
2021/03/05 04:27:53;;;;;;;19.10;14.63;;;;;;;;;;4962926;28;20033;-56
2021/03/05 04:30:35;;;;;;;17.27;13.63;;;;;;;;;;5002564;28;20380;-55
2021/03/05 04:33:32;;;;;;;;;;;;;;;;;;;;;
2021/03/05 04:39:58;;;;;;;17.50;12.50;;;;;;;;;;5025644;28;20042;-55
2021/03/05 04:43:00;;;;;;;;;;;;;;;;;;;;;
2021/03/05 04:45:49;;;;;;;16.37;12.23;;;;;;;;;;5025219;28;20614;-52
2021/03/05 04:48:47;;;;;;;23.37;13.87;;;;;;;;;;5018588;28;20038;-55
2021/03/05 04:51:50;;;;;;;19.10;12.33;;;;;;;;;;5036745;28;20018;-54
2021/03/05 04:54:38;;;;;;;;;;;;;;;;;;;;;
2021/03/05 05:03:37;;;;;;;15.33;12.23;;;;;;;;;;5011594;28;20033;-56
2021/03/05 05:06:29;;;;;;;21.97;14.40;;;;;;;;;;4921101;29;20032;-55
2021/03/05 05:09:07;;;;;;;14.97;12.40;;;;;;;;;;4936762;29;20032;-54
2021/03/05 05:12:03;;;;;;;15.63;12.03;;;;;;;;;;4937006;29;20468;-56
2021/03/05 05:18:14;;;;;;;17.13;11.93;;;;;;;;;;5036511;28;20034;-54
2021/03/05 05:20:43;;;;;;;18.83;13.50;;;;;;;;;;5036378;28;20029;-55
2021/03/05 05:23:27;;;;;;;16.57;13.93;;;;;;;;;;5001052;28;20091;-55
2021/03/05 05:26:01;;;;;;;17.80;12.67;;;;;;;;;;5036004;28;20030;-56
2021/03/05 05:28:34;;;;;;;17.47;12.77;;;;;;;;;;5036047;28;20021;-56
2021/03/05 05:31:26;;;;;;;13.87;12.23;;;;;;;;;;5036263;28;20440;-55
2021/03/05 05:34:00;;;;;;;13.57;10.83;;;;;;;;;;5036307;28;20428;-55
2021/03/05 05:36:32;;;;;;;16.40;10.87;;;;;;;;;;5036302;28;20647;-54
2021/03/05 05:42:10;;;;;;;17.20;10.10;;;;;;;;;;5035378;28;20121;-55
2021/03/05 05:44:47;;;;;;;15.23;11.43;;;;;;;;;;5038125;28;20081;-55
2021/03/05 05:47:41;;;;;;;12.23;9.40;;;;;;;;;;5035106;28;20268;-55
2021/03/05 05:50:11;;;;;;;14.13;10.93;;;;;;;;;;5019891;28;20041;-54
2021/03/05 05:52:52;;;;;;;15.10;11.63;;;;;;;;;;5039182;28;20037;-53
2021/03/05 05:55:28;;;;;;;17.73;11.97;;;;;;;;;;5021375;28;20057;-56
2021/03/05 05:58:22;;;;;;;;;;;;;;;;;;;;;
2021/03/05 06:01:03;;;;;;;12.57;9.03;;;;;;;;;;5039447;28;20423;-55
2021/03/05 06:03:51;;;;;;;15.53;11.73;;;;;;;;;;5039121;28;20032;-54
2021/03/05 06:09:43;;;;;;;13.93;11.23;;;;;;;;;;4992742;28;20052;-52
2021/03/05 06:12:24;;;;;;;16.90;11.53;;;;;;;;;;5038465;28;20041;-55
2021/03/05 06:14:57;;;;;;;12.50;10.00;;;;;;;;;;5038448;28;20037;-52
2021/03/05 06:17:51;;;;;;;18.03;10.77;;;;;;;;;;5038528;28;20025;-54
2021/03/05 06:23:40;;;;;;;;;;;;;;;;;;;;;
2021/03/05 06:26:09;;;;;;;16.90;10.80;;;;;;;;;;4953954;28;20608;-54
2021/03/05 06:29:11;;;;;;;16.93;9.60;;;;;;;;;;4977868;28;20122;-56
2021/03/05 06:34:51;;;;;;;13.17;10.57;;;;;;;;;;4983847;28;20463;-56
2021/03/05 06:40:38;;;;;;;14.43;10.50;;;;;;;;;;5039189;28;20119;-56
2021/03/05 06:43:14;;;;;;;14.17;10.17;;;;;;;;;;5039779;28;20029;-53
2021/03/05 06:45:46;;;;;;;11.63;9.33;;;;;;;;;;5039152;28;20030;-56
2021/03/05 06:48:41;;;;;;;10.83;8.60;;;;;;;;;;5037525;28;20045;-55
2021/03/05 06:51:35;;;;;;;12.93;10.17;;;;;;;;;;5003961;28;20487;-55
2021/03/05 06:54:32;;;;;;;;;;;;;;;;;;;;;
2021/03/05 06:57:02;;;;;;;12.23;8.63;;;;;;;;;;5030008;28;20106;-54
2021/03/05 07:02:43;;;;;;;11.47;9.13;;;;;;;;;;5025281;28;20140;-55
2021/03/05 07:05:37;;;;;;;9.90;7.60;;;;;;;;;;5038922;28;20036;-53
2021/03/05 07:08:10;;;;;;;11.97;9.33;;;;;;;;;;5038542;28;20025;-55
2021/03/05 07:10:49;;;;;;;;;;;;;;;;;;;;;
2021/03/05 07:13:31;;;;;;;16.23;10.93;;;;;;;;;;5039391;28;20425;-54
2021/03/05 07:16:38;;;;;;;15.07;10.83;;;;;;;;;;5021457;28;20096;-55
2021/03/05 07:19:26;;;;;;;10.80;8.80;;;;;;;;;;5037024;28;20032;-55
2021/03/05 07:21:52;;;;;;;11.27;8.97;;;;;;;;;;5038659;28;20053;-54
2021/03/05 07:24:34;;;;;;;16.90;9.20;;;;;;;;;;5036664;28;20145;-55
2021/03/05 07:27:35;;;;;;;13.63;10.97;;;;;;;;;;5037987;28;20030;-53
2021/03/05 07:30:02;;;;;;;9.43;7.53;;;;;;;;;;4944360;28;20035;-56
2021/03/05 07:39:17;;;;;;;14.32;10.63;;;;;;;;;;5024838;28;20038;-54
2021/03/05 07:44:56;;;;;;;13.83;10.10;;;;;;;;;;5026293;28;20037;-55
2021/03/05 07:47:45;;;;;;;;;;;;;;;;;;;;;
2021/03/05 07:50:34;;;;;;;12.30;8.83;;;;;;;;;;5033662;28;20045;-54
2021/03/05 07:53:20;;;;;;;17.23;11.37;;;;;;;;;;5017140;28;20041;-56
2021/03/05 07:59:13;;;;;;;12.83;9.13;;;;;;;;;;5016140;28;20033;-55
2021/03/05 08:10:44;;;;;;;16.27;10.57;;;;;;;;;;5020835;28;20087;-55
2021/03/05 08:13:43;;;;;;;16.30;11.17;;;;;;;;;;5037181;28;20026;-56
2021/03/05 08:16:51;;;;;;;14.83;10.93;;;;;;;;;;5037179;28;20344;-52
2021/03/05 08:19:35;;;;;;;;;;;;;;;;;;;;;
2021/03/05 08:22:13;;;;;;;14.50;10.93;;;;;;;;;;5033375;28;20324;-55
2021/03/05 08:25:10;;;;;;;19.87;12.63;;;;;;;;;;5036333;28;20030;-55
2021/03/05 08:34:08;;;;;;;14.55;11.60;;;;;;;;;;5022100;28;20111;-54
2021/03/05 08:36:48;;;;;;;18.13;10.93;;;;;;;;;;4935895;29;20115;-55
2021/03/05 08:39:33;;;;;;;17.35;11.65;;;;;;;;;;5017100;28;20041;-53
2021/03/05 08:42:34;;;;;;;14.67;10.87;;;;;;;;;;5035666;28;20041;-54
2021/03/05 08:48:27;;;;;;;16.03;9.60;;;;;;;;;;4974988;28;20038;-55
2021/03/05 08:51:09;;;;;;;12.87;10.93;;;;;;;;;;5016923;28;20493;-54
2021/03/05 08:53:48;;;;;;;14.40;10.47;;;;;;;;;;5016327;28;20037;-53
2021/03/05 08:56:29;;;;;;;13.90;10.83;;;;;;;;;;5017088;28;20029;-56
2021/03/05 08:59:19;;;;;;;17.25;11.65;;;;;;;;;;5016739;28;20028;-56
2021/03/05 09:02:13;;;;;;;17.17;10.45;;;;;;;;;;5017122;28;20037;-55
2021/03/05 09:05:06;;;;;;;17.23;11.60;;;;;;;;;;4997097;28;20030;-52
2021/03/05 09:07:55;;;;;;;14.43;11.17;;;;;;;;;;5016569;28;20057;-56
2021/03/05 09:10:54;;;;;;;;;;;;;;;;;;;;;
2021/03/05 09:16:41;;;;;;;15.50;9.83;;;;;;;;;;5005685;28;20043;-56
2021/03/05 09:19:22;;;;;;;15.93;9.88;;;;;;;;;;5016886;28;20430;-55
2021/03/05 09:22:29;;;;;;;18.77;10.70;;;;;;;;;;5002666;28;20112;-55
2021/03/05 09:25:10;;;;;;;12.30;9.73;;;;;;;;;;4954279;29;20118;-56
2021/03/05 09:27:40;;;;;;;19.75;10.35;;;;;;;;;;4939768;29;20449;-54
2021/03/05 09:33:10;;;;;;;14.10;9.90;;;;;;;;;;5002873;28;20057;-54
2021/03/05 09:36:07;;;;;;;15.93;10.27;;;;;;;;;;5019523;28;20539;-56
2021/03/05 09:42:13;;;;;;;16.30;10.00;;;;;;;;;;5019152;28;20045;-55
2021/03/05 09:44:47;;;;;;;17.37;11.27;;;;;;;;;;5001615;28;20040;-54
2021/03/05 09:50:40;;;;;;;;;;;;;;;;;;;;;
2021/03/05 09:53:54;;;;;;;12.30;8.83;;;;;;;;;;5038382;28;20125;-54
2021/03/05 09:56:54;;;;;;;13.47;8.33;;;;;;;;;;4985956;28;20108;-53
2021/03/05 09:59:52;;;;;;;;;;;;;;;;;;;;;
2021/03/05 10:05:20;;;;;;;15.87;9.40;;;;;;;;;;5039992;28;20047;-55
2021/03/05 10:08:21;;;;;;;11.47;9.43;;;;;;;;;;5039904;28;20033;-55
2021/03/05 10:11:15;;;;;;;13.80;10.10;;;;;;;;;;5038801;28;20017;-54
2021/03/05 10:14:06;;;;;;;16.23;10.23;;;;;;;;;;5039904;28;20363;-54
2021/03/05 10:19:55;;;;;;;11.73;8.47;;;;;;;;;;5039207;28;20033;-54
2021/03/05 10:22:27;;;;;;;16.17;9.73;;;;;;;;;;5020181;28;20048;-54
2021/03/05 10:25:31;;;;;;;12.17;8.87;;;;;;;;;;5037674;28;20458;-53
2021/03/05 10:28:18;;;;;;;14.47;9.87;;;;;;;;;;5037545;28;20064;-54
2021/03/05 10:30:53;;;;;;;14.17;9.40;;;;;;;;;;5020795;28;20321;-56
2021/03/05 10:33:54;;;;;;;11.47;9.30;;;;;;;;;;5034302;28;20029;-55
2021/03/05 10:36:36;;;;;;;14.32;8.57;;;;;;;;;;5034472;28;20026;-55
2021/03/05 10:39:13;;;;;;;15.60;9.17;;;;;;;;;;5033875;28;20375;-56
2021/03/05 10:44:59;;;;;;;12.67;8.70;;;;;;;;;;5034436;28;20042;-55
2021/03/05 10:47:42;;;;;;;;;;;;;;;;;;;;;
2021/03/05 10:50:28;;;;;;;16.00;10.57;;;;;;;;;;5030930;28;20056;-54
2021/03/05 10:53:21;;;;;;;10.60;8.20;;;;;;;;;;5034277;28;20053;-55
2021/03/05 10:55:59;;;;;;;12.93;7.90;;;;;;;;;;5034770;28;20025;-54
2021/03/05 10:58:39;;;;;;;17.37;9.00;;;;;;;;;;5035153;28;20048;-56
2021/03/05 11:01:11;;;;;;;11.30;9.20;;;;;;;;;;5015297;28;20076;-54
2021/03/05 11:03:45;;;;;;;17.67;9.55;;;;;;;;;;5016389;28;20440;-51
2021/03/05 11:06:34;;;;;;;10.20;7.60;;;;;;;;;;5016952;28;20029;-53
2021/03/05 11:09:11;;;;;;;11.88;7.82;;;;;;;;;;5032875;28;20049;-51
2021/03/05 11:12:21;;;;;;;15.93;10.30;;;;;;;;;;5035131;28;20026;-53
2021/03/05 11:14:58;;;;;;;14.77;9.27;;;;;;;;;;5034114;28;20058;-51
2021/03/05 11:17:33;;;;;;;13.33;8.07;;;;;;;;;;5034974;28;20100;-55
2021/03/05 11:20:02;;;;;;;14.17;9.03;;;;;;;;;;5034402;28;20021;-56
2021/03/05 11:22:56;;;;;;;15.70;8.77;;;;;;;;;;5033338;28;20034;-55
2021/03/05 11:25:52;;;;;;;15.38;9.35;;;;;;;;;;5015255;28;20124;-56
2021/03/05 11:28:24;;;;;;;15.23;10.07;;;;;;;;;;5017378;28;20018;-54
2021/03/05 11:31:15;;;;;;;13.00;9.45;;;;;;;;;;5034672;28;20387;-52
2021/03/05 11:33:46;;;;;;;10.25;7.78;;;;;;;;;;5015732;28;20033;-55
2021/03/05 11:36:31;;;;;;;15.02;9.98;;;;;;;;;;5017340;28;20033;-54
2021/03/05 11:39:00;;;;;;;12.70;8.53;;;;;;;;;;5014027;28;20092;-55
2021/03/05 11:41:54;;;;;;;15.03;8.17;;;;;;;;;;5011266;28;20495;-56
2021/03/05 11:44:32;;;;;;;13.77;8.87;;;;;;;;;;4972549;28;20042;-55
2021/03/05 11:47:16;;;;;;;10.33;8.53;;;;;;;;;;5015416;28;20069;-53
2021/03/05 11:52:51;;;;;;;12.37;9.07;;;;;;;;;;5015432;28;20092;-56
2021/03/05 11:55:51;;;;;;;13.50;7.97;;;;;;;;;;5015603;28;20030;-53
2021/03/05 11:58:41;;;;;;;12.47;8.33;;;;;;;;;;5014371;28;20460;-56
2021/03/05 12:01:33;;;;;;;14.10;9.97;;;;;;;;;;4956655;29;20039;-55
2021/03/05 12:04:19;;;;;;;11.50;9.07;;;;;;;;;;5013089;28;20061;-53
2021/03/05 12:10:29;;;;;;;10.65;7.40;;;;;;;;;;5037001;28;20398;-53
2021/03/05 12:13:06;;;;;;;11.57;7.97;;;;;;;;;;5035574;28;20467;-54
2021/03/05 12:15:42;;;;;;;13.50;8.97;;;;;;;;;;5018153;28;20460;-54
2021/03/05 12:18:27;;;;;;;;;;;;;;;;;;;;;
2021/03/05 12:21:11;;;;;;;20.00;10.50;;;;;;;;;;5001426;28;20029;-54
2021/03/05 12:24:00;;;;;;;17.20;8.63;;;;;;;;;;5034225;28;20136;-54
2021/03/05 12:29:59;;;;;;;12.53;9.13;;;;;;;;;;5034008;28;20048;-55
2021/03/05 12:32:41;;;;;;;14.32;8.88;;;;;;;;;;5036580;28;20037;-54
2021/03/05 12:35:34;;;;;;;12.83;8.00;;;;;;;;;;5036510;28;20026;-55
2021/03/05 12:40:59;;;;;;;15.55;8.60;;;;;;;;;;5036559;28;20468;-54
2021/03/05 12:43:35;;;;;;;14.87;8.93;;;;;;;;;;5036998;28;20030;-55
2021/03/05 12:46:11;;;;;;;15.90;10.27;;;;;;;;;;5037076;28;20482;-54
2021/03/05 12:49:19;;;;;;;12.82;9.45;;;;;;;;;;5035385;28;20030;-54
2021/03/05 12:52:38;;;;;;;11.93;8.40;;;;;;;;;;5036198;28;20065;-54
2021/03/05 12:55:27;;;;;;;11.80;8.80;;;;;;;;;;4936747;29;20086;-55
2021/03/05 12:57:57;;;;;;;14.37;9.00;;;;;;;;;;4936513;29;20049;-54
2021/03/05 13:00:29;;;;;;;15.70;10.07;;;;;;;;;;4999798;28;20037;-55
2021/03/05 13:06:15;;;;;;;13.63;9.50;;;;;;;;;;5037249;28;20040;-56
2021/03/05 13:09:19;;;;;;;11.07;7.95;;;;;;;;;;5036207;28;20057;-56
2021/03/05 13:11:58;;;;;;;14.13;9.07;;;;;;;;;;5036880;28;20038;-55
2021/03/05 13:14:41;;;;;;;8.85;7.60;;;;;;;;;;5035735;28;20041;-56
2021/03/05 13:17:31;;;;;;;13.00;8.75;;;;;;;;;;5017880;28;20120;-55
2021/03/05 13:20:06;;;;;;;10.10;7.47;;;;;;;;;;5036278;28;20028;-56
2021/03/05 13:22:47;;;;;;;13.90;9.13;;;;;;;;;;5036690;28;20298;-56
2021/03/05 13:25:33;;;;;;;14.15;9.30;;;;;;;;;;5017736;28;20038;-57
2021/03/05 13:28:03;;;;;;;15.30;8.63;;;;;;;;;;5036546;28;20037;-57
2021/03/05 13:30:38;;;;;;;12.50;9.48;;;;;;;;;;5035415;28;20021;-57
2021/03/05 13:33:45;;;;;;;12.55;7.05;;;;;;;;;;5035518;28;20038;-55
2021/03/05 13:36:19;;;;;;;18.35;8.18;;;;;;;;;;5026526;28;20057;-57
2021/03/05 13:39:19;;;;;;;13.90;9.67;;;;;;;;;;5017620;28;20575;-57
2021/03/05 13:42:08;;;;;;;19.10;9.38;;;;;;;;;;5035366;28;20120;-55
2021/03/05 13:44:48;;;;;;;13.02;7.85;;;;;;;;;;5014209;28;20088;-56
2021/03/05 13:47:26;;;;;;;12.60;8.35;;;;;;;;;;5033033;28;20092;-57
2021/03/05 13:50:06;;;;;;;10.48;8.20;;;;;;;;;;5034406;28;20146;-57
2021/03/05 13:53:03;;;;;;;9.73;7.85;;;;;;;;;;5032965;28;20464;-57
2021/03/05 13:55:38;;;;;;;12.05;8.35;;;;;;;;;;5029184;28;20037;-58
2021/03/05 13:58:33;;;;;;;11.90;8.70;;;;;;;;;;5036514;28;20055;-57
2021/03/05 14:01:17;;;;;;;10.13;6.90;;;;;;;;;;5017758;28;20037;-58
2021/03/05 14:06:58;;;;;;;17.13;10.02;;;;;;;;;;5035182;28;20455;-58
2021/03/05 14:09:47;;;;;;;11.25;7.55;;;;;;;;;;5035047;28;20072;-56
2021/03/05 14:12:48;;;;;;;13.85;8.70;;;;;;;;;;5035191;28;20410;-58
2021/03/05 14:15:17;;;;;;;;;;;;;;;;;;5035348;28;20029;-58
2021/03/05 14:17:53;;;;;;;11.27;8.47;;;;;;;;;;5030622;28;19905;-58
2021/03/05 14:20:47;;;;;;;11.17;8.60;;;;;;;;;;5010545;28;20084;-57
2021/03/05 14:23:22;;;;;;;13.70;9.70;;;;;;;;;;5034412;28;20112;-58
2021/03/05 14:25:51;;;;;;;21.47;11.77;;;;;;;;;;5016681;28;20092;-57
2021/03/05 14:28:49;;;;;;;14.83;9.50;;;;;;;;;;5034115;28;20039;-56
2021/03/05 14:31:21;;;;;;;12.03;9.00;;;;;;;;;;4919119;29;20036;-56
2021/03/05 14:34:05;;;;;;;13.80;9.10;;;;;;;;;;5034784;28;20036;-57
2021/03/05 14:36:51;;;;;;;13.10;9.40;;;;;;;;;;5034203;28;20049;-55
2021/03/05 14:39:48;;;;;;;17.83;8.37;;;;;;;;;;5016817;28;20030;-58
2021/03/05 14:43:06;;;;;;;10.47;7.27;;;;;;;;;;5034327;28;20088;-57
2021/03/05 14:45:27;;;;;;;11.30;7.07;;;;;;;;;;5022762;28;20139;-57
2021/03/05 14:48:02;;;;;;;7.97;5.30;;;;;;;;;;5035141;28;20052;-58
2021/03/05 14:50:53;;;;;;;8.63;6.30;;;;;;;;;;5033743;28;20081;-57
2021/03/05 14:53:42;;;;;;;10.67;7.57;;;;;;;;;;5035158;28;20423;-57
2021/03/05 14:56:27;;;;;;;10.90;7.30;;;;;;;;;;5018247;28;20033;-57
2021/03/05 15:02:18;;;;;;;11.30;8.70;;;;;;;;;;5010851;28;20029;-56
2021/03/05 15:05:10;;;;;;;;;;;;;;;;;;;;;
2021/03/05 15:11:06;;;;;;;12.80;8.23;;;;;;;;;;5022126;28;20471;-57
2021/03/05 15:13:38;;;;;;;14.00;7.93;;;;;;;;;;5033917;28;20104;-56
2021/03/05 15:16:24;;;;;;;9.53;7.37;;;;;;;;;;5033666;28;20026;-55
2021/03/05 15:18:56;;;;;;;11.87;8.53;;;;;;;;;;5033771;28;20029;-55
2021/03/05 15:21:40;;;;;;;12.70;8.70;;;;;;;;;;5039699;28;20041;-56
2021/03/05 15:24:12;;;;;;;14.13;8.57;;;;;;;;;;5022401;28;20045;-57
2021/03/05 15:26:48;;;;;;;12.23;9.33;;;;;;;;;;5040115;28;20029;-56
2021/03/05 15:29:37;;;;;;;12.33;8.60;;;;;;;;;;5022155;28;20029;-54
2021/03/05 15:32:41;;;;;;;;;;;;;;;;;;;;;
2021/03/05 15:38:37;;;;;;;10.10;5.60;;;;;;;;;;5039775;28;20033;-56
2021/03/05 15:41:20;;;;;;;10.63;5.60;;;;;;;;;;5040150;28;20451;-56
2021/03/05 15:43:58;;;;;;;8.10;6.57;;;;;;;;;;5040348;28;20056;-57
2021/03/05 15:46:56;;;;;;;8.03;5.23;;;;;;;;;;5023300;28;20037;-53
2021/03/05 15:49:23;;;;;;;6.23;3.97;;;;;;;;;;5040497;28;20025;-55
2021/03/05 15:52:21;;;;;;;5.93;4.30;;;;;;;;;;5039853;28;20140;-54
2021/03/05 16:01:13;;;;;;;4.10;2.70;;;;;;;;;;5040031;28;20116;-56
2021/03/05 16:03:58;;;;;;;4.47;2.90;;;;;;;;;;5022809;28;20033;-57
2021/03/05 16:06:36;;;;;;;4.00;2.63;;;;;;;;;;5039965;28;20105;-54
2021/03/05 16:09:12;;;;;;;4.07;2.73;;;;;;;;;;5040269;28;20030;-57
2021/03/05 16:12:13;;;;;;;2.77;1.97;;;;;;;;;;5022201;28;20025;-57
2021/03/05 16:17:37;;;;;;;3.47;2.07;;;;;;;;;;5039753;28;19905;-56
2021/03/05 16:23:42;;;;;;;4.03;2.50;;;;;;;;;;5037899;28;20046;-56
2021/03/05 16:29:22;;;;;;;4.73;2.00;;;;;;;;;;5026957;28;20372;-57
2021/03/05 16:35:46;;;;;;;5.70;2.70;;;;;;;;;;5029017;28;20029;-58
2021/03/05 16:38:40;;;;;;;4.40;2.87;;;;;;;;;;4941363;29;20631;-57
2021/03/05 16:41:23;;;;;;;5.07;3.23;;;;;;;;;;4940756;29;20039;-58
2021/03/05 16:43:54;;;;;;;4.03;2.87;;;;;;;;;;4937805;29;20047;-56
2021/03/05 16:49:35;;;;;;;6.00;3.37;;;;;;;;;;5038089;28;20037;-58
2021/03/05 16:52:19;;;;;;;5.30;3.37;;;;;;;;;;5018643;28;20057;-57
2021/03/05 16:54:50;;;;;;;4.40;3.20;;;;;;;;;;5036674;28;20026;-57
2021/03/05 17:03:34;;;;;;;5.57;3.17;;;;;;;;;;4995218;28;20472;-57
2021/03/05 17:06:19;;;;;;;4.20;2.90;;;;;;;;;;5018363;28;20120;-57
2021/03/05 17:09:13;;;;;;;6.00;3.20;;;;;;;;;;5037107;28;20364;-58
2021/03/05 17:14:52;;;;;;;6.27;4.40;;;;;;;;;;5034526;28;20432;-56
2021/03/05 17:17:36;;;;;;;7.73;5.10;;;;;;;;;;5036486;28;20026;-57
2021/03/05 17:20:28;;;;;;;8.77;4.77;;;;;;;;;;5036760;28;20030;-57
2021/03/05 17:28:54;;;;;;;5.17;3.93;;;;;;;;;;5025701;28;20032;-59
2021/03/05 17:34:27;;;;;;;6.33;3.87;;;;;;;;;;5007929;28;20034;-58
2021/03/05 17:37:03;;;;;;;6.07;4.97;;;;;;;;;;5036513;28;20088;-56
2021/03/05 17:39:57;;;;;;;6.07;4.23;;;;;;;;;;5036146;28;20028;-58
2021/03/05 17:42:32;;;;;;;7.10;5.30;;;;;;;;;;5035138;28;20488;-58
2021/03/05 17:47:59;;;;;;;5.93;4.07;;;;;;;;;;5029887;28;20037;-56
2021/03/05 17:50:38;;;;;;;6.70;4.97;;;;;;;;;;5035081;28;20084;-58
2021/03/05 17:56:41;;;;;;;7.60;5.57;;;;;;;;;;5034816;28;20502;-57
2021/03/05 17:59:16;;;;;;;8.83;5.63;;;;;;;;;;5034313;28;20048;-57
2021/03/05 18:02:01;;;;;;;10.17;5.53;;;;;;;;;;5035338;28;20112;-58
2021/03/05 18:04:42;;;;;;;8.20;5.57;;;;;;;;;;5035100;28;20041;-58
2021/03/05 18:07:36;;;;;;;5.50;4.30;;;;;;;;;;5017530;28;20471;-58
2021/03/05 18:10:31;;;;;;;6.73;3.50;;;;;;;;;;5035591;28;20021;-58
2021/03/05 18:16:26;;;;;;;7.07;5.40;;;;;;;;;;5023921;28;20133;-56
2021/03/05 18:19:06;;;;;;;9.93;4.57;;;;;;;;;;5035026;28;20036;-56
2021/03/05 18:25:13;;;;;;;7.50;4.87;;;;;;;;;;4935577;29;20044;-57
2021/03/05 18:27:55;;;;;;;8.70;5.37;;;;;;;;;;4936269;29;20545;-58
2021/03/05 18:30:30;;;;;;;4.83;4.00;;;;;;;;;;4934790;29;20071;-58
2021/03/05 18:33:16;;;;;;;7.33;4.83;;;;;;;;;;4983720;28;20056;-58
2021/03/05 18:35:57;;;;;;;;;;;;;;;;;;5028547;28;20046;-58
2021/03/05 18:38:47;;;;;;;9.50;5.27;;;;;;;;;;5016468;28;20000;-57
2021/03/05 18:41:23;;;;;;;;;;;;;;;;;;;;;
2021/03/05 18:47:05;;;;;;;7.33;4.70;;;;;;;;;;5034010;28;20546;-57
2021/03/05 18:49:38;;;;;;;6.57;4.80;;;;;;;;;;5017790;28;20116;-58
2021/03/05 18:52:18;;;;;;;7.80;5.87;;;;;;;;;;4999356;28;20041;-58
2021/03/05 18:54:49;;;;;;;8.50;4.78;;;;;;;;;;5032316;28;20483;-58
2021/03/05 18:57:31;;;;;;;;;;;;;;;;;;5034258;28;20479;-58
2021/03/05 19:03:16;;;;;;;9.17;4.40;;;;;;;;;;5033900;28;20048;-57
2021/03/05 19:05:55;;;;;;;7.07;5.60;;;;;;;;;;5000157;28;20034;-58
2021/03/05 19:09:01;;;;;;;10.93;5.93;;;;;;;;;;5013974;28;20124;-56
2021/03/05 19:11:37;;;;;;;7.13;5.20;;;;;;;;;;5033202;28;20029;-57
2021/03/05 19:14:04;;;;;;;7.30;4.87;;;;;;;;;;5032733;28;20038;-57
2021/03/05 19:16:54;;;;;;;8.93;4.40;;;;;;;;;;5016292;28;20121;-58
2021/03/05 19:19:29;;;;;;;10.50;5.20;;;;;;;;;;5016025;28;20112;-58
2021/03/05 19:22:01;;;;;;;8.97;5.40;;;;;;;;;;5034480;28;20060;-57
2021/03/05 19:24:29;;;;;;;8.73;5.50;;;;;;;;;;5016178;28;20061;-56
2021/03/05 19:27:27;;;;;;;8.33;6.60;;;;;;;;;;4992573;28;20042;-57
2021/03/05 19:36:22;;;;;;;7.57;5.00;;;;;;;;;;4992739;28;20046;-58
2021/03/05 19:38:51;;;;;;;8.53;4.87;;;;;;;;;;4992738;28;20034;-58
2021/03/05 19:44:59;;;;;;;4.67;3.97;;;;;;;;;;4980010;28;20034;-56
2021/03/05 19:50:38;;;;;;;6.60;5.90;;;;;;;;;;4982090;28;20030;-57
2021/03/05 19:53:10;;;;;;;8.47;4.50;;;;;;;;;;4991826;28;20149;-57
2021/03/05 19:56:11;;;;;;;5.43;4.27;;;;;;;;;;4992647;28;20035;-57
2021/03/05 19:58:41;;;;;;;5.37;3.80;;;;;;;;;;5010892;28;20038;-57
2021/03/05 20:01:11;;;;;;;8.70;4.37;;;;;;;;;;5017474;28;20467;-57
2021/03/05 20:04:06;;;;;;;7.70;5.40;;;;;;;;;;5033229;28;20022;-57
2021/03/05 20:06:47;;;;;;;6.40;4.33;;;;;;;;;;5034000;28;20476;-57
2021/03/05 20:09:25;;;;;;;5.70;4.47;;;;;;;;;;5019781;28;20040;-56
2021/03/05 20:11:58;;;;;;;6.93;4.60;;;;;;;;;;5019002;28;20025;-58
2021/03/05 20:14:36;;;;;;;8.37;5.20;;;;;;;;;;5019029;28;20041;-56
2021/03/05 20:17:10;;;;;;;4.40;3.13;;;;;;;;;;5037201;28;20025;-57
2021/03/05 20:20:16;;;;;;;6.67;4.70;;;;;;;;;;5036799;28;20036;-57
2021/03/05 20:22:46;;;;;;;7.03;4.10;;;;;;;;;;5035890;28;20068;-58
2021/03/05 20:25:32;;;;;;;4.83;3.37;;;;;;;;;;5019213;28;20029;-58